Eastlake, CO (80614)

05:48 AM MST del 13 Febbraio 2016 (GMT -0700)
Hunters Glen | | Change Station
CLOSE
Current Station
Stazione meteo personale
Location: Thornton, CO
Altitudine: 5223 ft
Stazioni meteo nelle vicinanze
Avvisi attivi: Dense Fog Advisory Notifica attiva: Public Information Statement

Alt. 5223 ft 39.94 °N, 104.97 °W | Updated 58 seconds ago

Nebbia
Nebbia
28.9 °F
Sembra 29 °F
N
2.7
Vento Variabile Vento da NNO

Oggi
Massima -- | Minima -- °F
--% Possibilità di precip.
Ieri
Massima -- | Minima -- °F
Precip. -- in
Pressione 30.10 in
Visibilità 0.2 miglia
Nuvole Coperto 100 ft
Raffreddamento del vento 29 °F
Punto di rugiada 27 °F
Umidità 91%
Piovosità 0.00 in
Spessore del manto nevoso Non disponibile.
6:55 AM 5:33 PM
Luna crescente, 30% visible
METAR KEIK 131235Z AUTO 00000KT 1/4SM FZFG OVC001 M01/M01 A3010 RMK AO2 T10131013
Pressione 30.10 in
Visibilità 0.2 miglia
Nuvole Coperto 100 ft
Raffreddamento del vento 29 °F
Punto di rugiada 27 °F
Umidità 91%
Piovosità 0.00 in
Spessore del manto nevoso Non disponibile.
6:55 AM 5:33 PM
Luna crescente, 30% visible
METAR KEIK 131235Z AUTO 00000KT 1/4SM FZFG OVC001 M01/M01 A3010 RMK AO2 T10131013

10-Day Weather Forecast

Almanac

Astronomia

Feb. 13, 2016 Alba Tramonto
Ora attuale
Crepuscolo civile
Crepuscolo nautico
Crepuscolo astronomico
Luna
Estensione della luce visibile
Lunghezza del giorno
Tomorrow will be .
, % of the Moon is Illuminated

Gli estremi di oggi

State Highs State Lows

Community

WunderPhotos

Upload Photos

1,892,543 foto caricate!

WunderBlog® & News

Nearby

Qualità dell'aria

  Qualità dell'aria Indice AQ Inquinante
Not available.

Profondità neve

Stazione Profondità Altitudine

Attività sismica

Città  Distanza Mag. Data & Ora
Minimo Magnitudo Mostrato è 2.5.

Temperature delle acque costiere

Località Temperatura

Stations

Stazioni meteo nelle vicinanze

Ubicazione della stazione Temp. Raffreddamento del vento Punto di rugiada Umidità Vento Precip. Alt. Aggiornato Tipo
                   

Watches & Warnings

Dense Fog Advisory
Issued: 04:17 MST Feb. 13, 2016 – National Weather Service

... Dense fog advisory in effect until 9 am MST this morning...

The National Weather Service in Denver has issued a dense fog
advisory... which is in effect until 9 am MST this morning.

* Visibility... less than a quarter mile between Fort Collins and Denver
and from the foothills eastward to Highway 85... including
Interstate 25.

* Impacts... travelers will need to drive much slower... use low
beam headlights and exercise extreme caustion while driving in
the dense fog. Bridges and overpasses may also have icy
conditions.

Precautionary/preparedness actions...

A dense fog advisory means visibilities will frequently be
reduced to less than one quarter mile. If driving... slow down...
use your low beam headlights... and leave plenty of distance ahead
of you.